• Join FlightAware (Why Join?)
  • Login
  • US Flag 
02:22AM EST


 

Airport Tracker/Info


-or-


 

Live Flight TrackerFlight Track Log ✈ TYR847 ✈ 30-Jul-2014 ✈ LOWW / VIE - LATI / TIA

Flight Track Log - Related Links

Times and Time Zones

All times are in EDT time to prevent confusion due to time zone crossing. See the TYR847 flight status page for this flight to view local times or setup timezone preferences in your user account.

Time Position Orientation Groundspeed Altitude Reporting Facility
EDT Latitude Longitude Course Direction KTS MPH feet Rate Location/Type
07:18AM 47.8170 16.7252 160° South  Level Estimated
07:19AM 47.7191 16.7767 161° South  Level Estimated
07:20AM 47.6213 16.8279 161° South  Level Estimated
07:21AM 47.5234 16.8790 161° South  Level Estimated
07:22AM 47.4255 16.9299 161° South  Level Estimated
07:23AM 47.3276 16.9805 161° South  Level Estimated
07:24AM 47.2297 17.0310 161° South  Level Estimated
07:25AM 47.1317 17.0813 161° South  Level Estimated
07:26AM 47.0337 17.1315 161° South  Level Estimated
07:27AM 46.9357 17.1814 161° South  Level Estimated
07:28AM 46.8377 17.2312 161° South  Level Estimated
07:29AM 46.7397 17.2807 161° South  Level Estimated
07:30AM 46.6416 17.3301 161° South  Level Estimated
07:31AM 46.5435 17.3794 161° South  Level Estimated
07:32AM 46.4454 17.4284 161° South  Level Estimated
07:33AM 46.3473 17.4772 161° South  Level Estimated
07:34AM 46.2491 17.5259 161° South  Level Estimated
07:35AM 46.1509 17.5744 161° South  Level Estimated
07:36AM 46.0527 17.6228 161° South  Level Estimated
07:37AM 45.9545 17.6710 161° South  Level Estimated
07:38AM 45.8563 17.7190 161° South  Level Estimated
07:39AM 45.7580 17.7668 161° South  Level Estimated
07:40AM 45.6598 17.8144 161° South  Level Estimated
07:41AM 45.5615 17.8619 161° South  Level Estimated
07:42AM 45.4632 17.9093 161° South  Level Estimated
07:43AM 45.3648 17.9564 161° South  Level Estimated
07:44AM 45.2665 18.0034 161° South  Level Estimated
07:45AM 45.1681 18.0503 161° South  Level Estimated
07:46AM 45.0697 18.0970 161° South  Level Estimated
07:47AM 44.9713 18.1435 162° South  Level Estimated
07:48AM 44.8729 18.1898 162° South  Level Estimated
07:49AM 44.7744 18.2360 162° South  Level Estimated
07:50AM 44.6760 18.2821 162° South  Level Estimated
07:51AM 44.5775 18.3279 162° South  Level Estimated
07:52AM 44.4790 18.3737 162° South  Level Estimated
07:53AM 44.3805 18.4193 162° South  Level Estimated
07:54AM 44.2820 18.4647 162° South  Level Estimated
07:55AM 44.1834 18.5099 162° South  Level Estimated
07:56AM 44.0848 18.5551 162° South  Level Estimated
07:57AM 43.9862 18.6000 162° South  Level Estimated
07:58AM 43.8876 18.6448 162° South  Level Estimated
07:59AM 43.7890 18.6895 162° South  Level Estimated
08:00AM 43.6904 18.7340 162° South  Level Estimated
08:01AM 43.5917 18.7784 162° South  Level Estimated
08:02AM 43.4930 18.8227 162° South  Level Estimated
08:03AM 43.3943 18.8667 162° South  Level Estimated
08:04AM 43.2956 18.9107 162° South  Level Estimated
08:05AM 43.1969 18.9545 162° South  Level Estimated
08:06AM 43.0981 18.9981 162° South  Level Estimated
08:07AM 42.9994 19.0417 162° South  Level Estimated
08:08AM 42.9006 19.0851 162° South  Level Estimated
08:09AM 42.8018 19.1283 162° South  Level Estimated
08:10AM 42.7030 19.1714 162° South  Level Estimated
08:11AM 42.6042 19.2144 162° South  Level Estimated
08:12AM 42.5053 19.2572 162° South  Level Estimated
08:13AM 42.4065 19.2999 162° South  Level Estimated
08:14AM 42.3076 19.3424 162° South  Level Estimated
08:15AM 42.2087 19.3849 162° South  Level Estimated
08:16AM 42.1098 19.4272 162° South  Level Estimated
08:17AM 42.0109 19.4693 162° South  Level Estimated
08:18AM 41.9120 19.5114 162° South  Level Estimated
08:19AM 41.8130 19.5533 162° South  Level Estimated
08:20AM 41.7140 19.5951 163° South  Level Estimated
08:21AM 41.6151 19.6367 163° South  Level Estimated
08:22AM 41.5161 19.6782 163° South  Level Estimated
08:23AM 41.4170 19.7196 163° South  Level Estimated
08:24AM 41.4147 19.7206 163° South  Level Estimated
08:25AM 41.4147 19.7206 North  Level Estimated
08:26AM 41.4147 19.7206 North  Level Estimated
08:27AM 41.4147 19.7206 North  Level Estimated
08:28AM 41.4147 19.7206 North  Level Estimated
08:29AM 41.4147 19.7206 North  Level Estimated
08:30AM 41.4147 19.7206 North  Level Estimated
08:31AM 41.4147 19.7206 North  Level Estimated
08:32AM 41.4147 19.7206 North  Level Estimated
08:33AM 41.4147 19.7206 North  Level Estimated
08:34AM 41.4147 19.7206 North  Level Estimated
08:35AM 41.4147 19.7206 North  Level Estimated
08:36AM 41.4147 19.7206 North  Level Estimated
08:37AM 41.4147 19.7206 North  Level Estimated